createdAt,value
2023-09-28T00:01:39.560Z,3.60
2023-09-28T00:04:08.143Z,4.28
2023-09-28T00:06:36.945Z,4.10
2023-09-28T00:09:06.014Z,3.78
2023-09-28T00:11:34.744Z,4.40
2023-09-28T00:14:03.192Z,3.80
2023-09-28T00:16:30.559Z,3.75
2023-09-28T00:18:59.799Z,3.90
2023-09-28T00:21:27.617Z,4.22
2023-09-28T00:23:56.162Z,4.18
2023-09-28T00:26:23.829Z,3.92
2023-09-28T00:28:53.613Z,4.03
2023-09-28T00:31:21.004Z,3.88
2023-09-28T00:33:49.505Z,3.75
2023-09-28T00:36:16.784Z,4.30
2023-09-28T00:38:48.837Z,3.90
2023-09-28T00:41:17.256Z,4.05
2023-09-28T00:43:46.087Z,4.00
2023-09-28T00:46:17.723Z,3.90
2023-09-28T00:48:55.231Z,4.40
2023-09-28T00:51:25.067Z,4.22
2023-09-28T00:53:52.513Z,4.13
2023-09-28T00:56:22.875Z,4.18
2023-09-28T00:58:53.306Z,4.10
2023-09-28T01:01:22.940Z,4.05
2023-09-28T01:03:50.280Z,4.00
2023-09-28T01:06:18.750Z,4.10
2023-09-28T01:08:46.050Z,4.65
2023-09-28T01:11:14.430Z,4.00
2023-09-28T01:13:41.857Z,4.38
2023-09-28T01:16:10.332Z,3.88
2023-09-28T01:18:39.112Z,3.95
2023-09-28T01:21:07.991Z,4.15
2023-09-28T01:23:36.686Z,4.30
2023-09-28T01:26:05.076Z,4.15
2023-09-28T01:28:32.389Z,4.50
2023-09-28T01:31:00.746Z,3.97
2023-09-28T01:33:28.767Z,4.00
2023-09-28T01:35:57.140Z,4.03
2023-09-28T01:38:35.964Z,4.00
2023-09-28T01:41:05.650Z,4.00
2023-09-28T01:43:32.836Z,4.00
2023-09-28T01:46:01.226Z,4.10
2023-09-28T01:48:28.491Z,4.10
2023-09-28T01:50:56.806Z,4.30
2023-09-28T01:53:24.778Z,4.15
2023-09-28T01:55:53.208Z,4.30
2023-09-28T01:58:23.040Z,4.25
2023-09-28T02:00:50.332Z,3.88
2023-09-28T02:03:18.708Z,4.10
2023-09-28T02:05:45.908Z,3.85
2023-09-28T02:08:14.069Z,3.83
2023-09-28T02:10:41.686Z,3.95
2023-09-28T02:13:10.235Z,4.32
2023-09-28T02:15:38.930Z,3.80
2023-09-28T02:18:07.482Z,4.10
2023-09-28T02:20:35.726Z,4.05
2023-09-28T02:23:04.119Z,4.13
2023-09-28T02:25:31.651Z,3.85
2023-09-28T02:28:00.066Z,3.97
2023-09-28T02:30:27.784Z,4.15
2023-09-28T02:32:57.705Z,3.97
2023-09-28T02:35:25.607Z,3.90
2023-09-28T02:37:55.085Z,4.50
2023-09-28T02:40:22.468Z,4.55
2023-09-28T02:42:50.844Z,4.13
2023-09-28T02:45:18.723Z,4.00
2023-09-28T02:47:48.763Z,4.07
2023-09-28T02:50:19.108Z,3.77
2023-09-28T02:52:49.075Z,4.07
2023-09-28T02:55:20.126Z,3.87
2023-09-28T02:57:48.911Z,4.10
2023-09-28T03:00:20.265Z,3.97
2023-09-28T03:02:48.839Z,4.15
2023-09-28T03:05:18.670Z,3.97
2023-09-28T03:07:47.390Z,4.10
2023-09-28T03:10:14.898Z,4.00
2023-09-28T03:12:46.045Z,4.28
2023-09-28T03:15:13.588Z,4.07
2023-09-28T03:17:43.177Z,4.30
2023-09-28T03:20:15.097Z,3.78
2023-09-28T03:22:45.996Z,3.90
2023-09-28T03:27:47.232Z,4.35
2023-09-28T03:30:15.899Z,3.78
2023-09-28T03:32:44.693Z,4.13
2023-09-28T03:35:12.919Z,4.28
2023-09-28T03:37:42.732Z,4.10
2023-09-28T03:40:13.638Z,4.07
2023-09-28T03:42:43.024Z,4.68
2023-09-28T03:45:12.547Z,3.97
2023-09-28T03:47:41.859Z,4.10
2023-09-28T03:50:12.157Z,4.15
2023-09-28T03:52:41.357Z,4.00
2023-09-28T03:55:13.728Z,4.32
2023-09-28T03:57:43.962Z,4.35
2023-09-28T04:00:15.662Z,4.75
2023-09-28T04:02:47.646Z,4.03
2023-09-28T04:05:18.027Z,4.05
2023-09-28T04:07:47.203Z,4.32
2023-09-28T04:10:17.698Z,4.28
2023-09-28T04:12:46.827Z,4.05
2023-09-28T04:15:15.170Z,4.43
2023-09-28T04:17:45.187Z,4.10
2023-09-28T04:20:14.582Z,4.22
2023-09-28T04:22:42.949Z,4.65
2023-09-28T04:25:13.236Z,4.20
2023-09-28T04:27:43.104Z,4.25
2023-09-28T04:30:12.456Z,3.88
2023-09-28T04:32:40.830Z,4.00
2023-09-28T04:35:12.392Z,4.00
2023-09-28T04:37:41.098Z,3.85
2023-09-28T04:40:12.482Z,4.53
2023-09-28T04:42:42.364Z,4.20
2023-09-28T04:45:11.641Z,4.38
2023-09-28T04:47:40.044Z,3.88
2023-09-28T04:50:09.652Z,4.22
2023-09-28T04:52:38.113Z,4.32
2023-09-28T04:55:08.561Z,4.25
2023-09-28T04:57:36.974Z,4.68
2023-09-28T05:00:09.546Z,3.90
2023-09-28T05:02:40.369Z,4.53
2023-09-28T05:05:12.413Z,4.45
2023-09-28T05:07:41.194Z,4.25
2023-09-28T05:10:10.460Z,4.35
2023-09-28T05:12:38.689Z,4.25
2023-09-28T05:15:10.550Z,4.10
2023-09-28T05:17:39.104Z,4.50
2023-09-28T05:20:09.232Z,4.22
2023-09-28T05:22:37.702Z,4.40
2023-09-28T05:25:06.556Z,4.30
2023-09-28T05:27:34.751Z,5.00
2023-09-28T05:30:04.805Z,4.60
2023-09-28T05:32:34.433Z,4.78
2023-09-28T05:35:04.031Z,4.47
2023-09-28T05:37:32.338Z,4.68
2023-09-28T05:40:01.721Z,4.72
2023-09-28T05:42:29.878Z,4.70
2023-09-28T05:44:58.108Z,4.72
2023-09-28T05:47:26.379Z,4.72
2023-09-28T05:49:56.161Z,4.78
2023-09-28T05:52:24.426Z,4.43
2023-09-28T05:54:54.266Z,4.47
2023-09-28T05:57:23.800Z,4.43
2023-09-28T05:59:52.029Z,4.63
2023-09-28T06:02:23.895Z,4.75
2023-09-28T06:04:52.667Z,4.75
2023-09-28T06:07:24.945Z,4.60
2023-09-28T06:09:53.817Z,5.00
2023-09-28T06:12:22.336Z,5.03
2023-09-28T06:14:50.876Z,4.80
2023-09-28T06:17:19.613Z,5.05
2023-09-28T06:22:25.025Z,4.72
2023-09-28T06:24:53.283Z,4.60
2023-09-28T06:27:21.671Z,4.72
2023-09-28T06:29:54.281Z,4.40
2023-09-28T06:32:23.662Z,4.50
2023-09-28T06:34:52.248Z,4.68
2023-09-28T06:37:20.588Z,4.45
2023-09-28T06:39:50.148Z,4.40
2023-09-28T06:42:34.631Z,4.50
2023-09-28T06:45:05.389Z,4.82
2023-09-28T06:47:46.378Z,4.20
2023-09-28T06:50:22.103Z,4.80
2023-09-28T06:52:50.633Z,4.78
2023-09-28T06:55:20.285Z,4.20
2023-09-28T06:57:49.885Z,4.80
2023-09-28T07:00:18.954Z,5.05
2023-09-28T07:02:48.780Z,4.68
2023-09-28T07:05:17.930Z,4.83
2023-09-28T07:07:47.687Z,5.18
2023-09-28T07:10:16.318Z,4.97
2023-09-28T07:12:46.149Z,4.88
2023-09-28T07:15:14.617Z,4.88
2023-09-28T07:17:43.691Z,4.90
2023-09-28T07:20:16.522Z,5.00
2023-09-28T07:22:45.101Z,4.90
2023-09-28T07:25:13.621Z,4.78
2023-09-28T07:27:45.128Z,4.65
2023-09-28T07:30:13.903Z,4.82
2023-09-28T07:32:42.459Z,4.60
2023-09-28T07:35:12.561Z,4.90
2023-09-28T07:37:41.411Z,5.07
2023-09-28T07:40:13.561Z,5.22
2023-09-28T07:42:42.708Z,5.25
2023-09-28T07:45:13.993Z,4.72
2023-09-28T07:47:42.691Z,4.97
2023-09-28T07:50:16.126Z,5.43
2023-09-28T07:52:45.086Z,5.38
2023-09-28T07:55:14.706Z,5.18
2023-09-28T08:00:18.770Z,5.18
2023-09-28T08:02:47.283Z,4.65
2023-09-28T08:05:15.715Z,5.10
2023-09-28T08:07:49.576Z,5.60
2023-09-28T08:10:24.961Z,5.55
2023-09-28T08:12:54.398Z,4.68
2023-09-28T08:15:36.066Z,5.45
2023-09-28T08:18:05.671Z,5.88
2023-09-28T08:20:36.011Z,5.22
2023-09-28T08:25:35.489Z,5.72
2023-09-28T08:28:03.859Z,5.80
2023-09-28T08:30:33.641Z,6.10
2023-09-28T08:33:03.140Z,5.72
2023-09-28T08:35:32.038Z,5.65
2023-09-28T08:38:00.892Z,5.80
2023-09-28T08:40:31.682Z,5.57
2023-09-28T08:43:06.589Z,5.65
2023-09-28T08:45:37.233Z,5.82
2023-09-28T08:48:09.693Z,5.70
2023-09-28T08:50:41.353Z,6.05
2023-09-28T08:53:10.897Z,6.53
2023-09-28T08:55:40.357Z,6.05
2023-09-28T08:58:10.110Z,6.10
2023-09-28T09:00:41.515Z,6.90
2023-09-28T09:03:10.553Z,6.22
2023-09-28T09:05:42.694Z,5.95
2023-09-28T09:08:14.157Z,5.45
2023-09-28T09:10:42.808Z,5.50
2023-09-28T09:13:18.110Z,5.80
2023-09-28T09:15:47.924Z,5.90
2023-09-28T09:18:21.157Z,5.57
2023-09-28T09:20:51.146Z,5.30
2023-09-28T09:23:20.235Z,5.67
2023-09-28T09:25:49.601Z,5.90
2023-09-28T09:28:30.819Z,5.53
2023-09-28T09:31:00.644Z,5.10
2023-09-28T09:33:29.978Z,6.07
2023-09-28T09:35:59.216Z,5.97
2023-09-28T09:38:31.861Z,5.45
2023-09-28T09:41:01.255Z,5.50
2023-09-28T09:43:32.562Z,5.30
2023-09-28T09:46:05.246Z,5.28
2023-09-28T09:48:41.301Z,5.38
2023-09-28T09:51:15.770Z,5.47
2023-09-28T09:53:45.393Z,6.13
2023-09-28T09:56:15.320Z,5.50
2023-09-28T09:58:49.005Z,6.10
2023-09-28T10:01:20.580Z,6.25
2023-09-28T10:03:51.837Z,5.55
2023-09-28T10:06:22.335Z,5.18
2023-09-28T10:08:52.162Z,5.97
2023-09-28T10:11:20.958Z,5.77
2023-09-28T10:13:51.486Z,6.07
2023-09-28T10:16:22.481Z,5.68
2023-09-28T10:18:54.560Z,5.93
2023-09-28T10:21:23.630Z,6.00
2023-09-28T10:23:56.904Z,6.80
2023-09-28T10:26:32.370Z,5.45
2023-09-28T10:29:05.344Z,5.45
2023-09-28T10:31:55.402Z,6.57
2023-09-28T10:34:27.714Z,5.85
2023-09-28T10:37:22.617Z,5.10
2023-09-28T10:39:57.471Z,5.18
2023-09-28T10:42:28.251Z,5.05
2023-09-28T10:44:58.277Z,5.38
2023-09-28T10:47:32.448Z,4.87
2023-09-28T10:50:02.072Z,5.20
2023-09-28T10:52:31.928Z,5.25
2023-09-28T10:55:01.088Z,5.97
2023-09-28T10:57:33.578Z,4.82
2023-09-28T11:00:03.459Z,4.93
2023-09-28T11:02:39.142Z,4.70
2023-09-28T11:05:10.465Z,5.15
2023-09-28T11:07:39.782Z,5.00
2023-09-28T11:10:10.169Z,5.25
2023-09-28T11:12:40.647Z,5.55
2023-09-28T11:15:11.213Z,5.25
2023-09-28T11:20:13.365Z,5.00
2023-09-28T11:22:42.041Z,5.00
2023-09-28T11:25:13.746Z,4.97
2023-09-28T11:27:44.901Z,5.13
2023-09-28T11:30:20.749Z,5.20
2023-09-28T11:32:53.013Z,4.80
2023-09-28T11:35:27.956Z,5.35
2023-09-28T11:38:01.202Z,5.47
2023-09-28T11:40:30.228Z,6.03
2023-09-28T11:43:01.073Z,5.25
2023-09-28T11:45:30.872Z,5.60
2023-09-28T11:48:04.229Z,5.60
2023-09-28T11:50:34.265Z,5.60
2023-09-28T11:53:03.506Z,5.50
2023-09-28T11:55:32.517Z,6.35
2023-09-28T11:58:02.250Z,5.38
2023-09-28T12:00:32.217Z,5.45
2023-09-28T12:03:03.992Z,5.77
2023-09-28T12:05:35.094Z,5.60
2023-09-28T12:08:04.334Z,5.78
2023-09-28T12:10:33.285Z,5.50
2023-09-28T12:13:01.959Z,5.35
2023-09-28T12:15:30.764Z,5.63
2023-09-28T12:17:59.740Z,5.93
2023-09-28T12:20:30.834Z,5.32
2023-09-28T12:23:00.577Z,5.55
2023-09-28T12:25:34.541Z,5.93
2023-09-28T12:28:04.206Z,5.47
2023-09-28T12:30:33.156Z,5.30
2023-09-28T12:33:02.689Z,5.68
2023-09-28T12:35:32.600Z,5.53
2023-09-28T12:38:05.046Z,5.30
2023-09-28T12:40:35.042Z,5.18
2023-09-28T12:43:06.447Z,5.75
2023-09-28T12:45:35.484Z,5.28
2023-09-28T12:48:05.363Z,5.75
2023-09-28T12:50:37.823Z,5.37
2023-09-28T12:53:06.711Z,4.93
2023-09-28T12:55:36.078Z,5.57
2023-09-28T12:58:05.495Z,5.05
2023-09-28T13:00:34.606Z,5.00
2023-09-28T13:03:08.319Z,5.35
2023-09-28T13:05:39.246Z,5.90
2023-09-28T13:10:36.926Z,5.45
2023-09-28T13:13:07.485Z,5.35
2023-09-28T13:15:35.959Z,5.25
2023-09-28T13:18:10.034Z,5.20
2023-09-28T13:20:41.382Z,5.50
2023-09-28T13:23:11.328Z,5.00
2023-09-28T13:25:40.601Z,4.50
2023-09-28T13:28:11.126Z,4.80
2023-09-28T13:30:40.880Z,4.80
2023-09-28T13:33:11.040Z,5.57
2023-09-28T13:35:42.057Z,5.20
2023-09-28T13:38:10.954Z,5.57
2023-09-28T13:40:41.361Z,4.57
2023-09-28T13:43:10.558Z,5.43
2023-09-28T13:45:39.051Z,4.78
2023-09-28T13:48:08.662Z,4.90
2023-09-28T13:50:37.201Z,4.90
2023-09-28T13:53:08.350Z,4.90
2023-09-28T13:55:37.738Z,5.05
2023-09-28T13:58:06.945Z,4.63
2023-09-28T14:00:41.504Z,5.20
2023-09-28T14:03:10.576Z,4.53
2023-09-28T14:05:39.664Z,5.22
2023-09-28T14:08:12.704Z,5.15
2023-09-28T14:10:41.095Z,4.85
2023-09-28T14:13:09.262Z,4.65
2023-09-28T14:15:38.591Z,4.63
2023-09-28T14:18:08.390Z,4.85
2023-09-28T14:20:37.689Z,5.20
2023-09-28T14:23:06.492Z,4.72
2023-09-28T14:25:36.222Z,5.00
2023-09-28T14:28:05.145Z,5.05
2023-09-28T14:30:33.532Z,4.80
2023-09-28T14:33:02.973Z,5.13
2023-09-28T14:35:31.684Z,4.35
2023-09-28T14:38:00.039Z,4.97
2023-09-28T14:40:28.340Z,4.68
2023-09-28T14:42:57.910Z,5.15
2023-09-28T14:45:26.222Z,4.85
2023-09-28T14:47:54.557Z,5.30
2023-09-28T14:50:22.929Z,4.63
2023-09-28T14:52:51.400Z,4.82
2023-09-28T14:55:19.856Z,4.63
2023-09-28T14:57:48.086Z,5.10
2023-09-28T15:00:18.219Z,4.68
2023-09-28T15:02:48.030Z,5.20
2023-09-28T15:05:16.414Z,5.33
2023-09-28T15:07:44.613Z,5.07
2023-09-28T15:10:13.554Z,4.97
2023-09-28T15:12:42.140Z,4.72
2023-09-28T15:15:10.730Z,4.75
2023-09-28T15:17:40.649Z,4.88
2023-09-28T15:20:11.255Z,5.37
2023-09-28T15:25:08.254Z,4.65
2023-09-28T15:27:36.940Z,4.53
2023-09-28T15:30:05.864Z,4.82
2023-09-28T15:32:34.298Z,4.95
2023-09-28T15:35:04.354Z,4.80
2023-09-28T15:37:32.719Z,5.03
2023-09-28T15:40:01.001Z,4.25
2023-09-28T15:42:29.296Z,4.82
2023-09-28T15:44:57.601Z,4.80
2023-09-28T15:47:26.290Z,5.13
2023-09-28T15:49:54.651Z,5.22
2023-09-28T15:52:24.355Z,5.03
2023-09-28T15:54:52.581Z,4.70
2023-09-28T15:57:20.894Z,4.82
2023-09-28T15:59:49.274Z,4.57
2023-09-28T16:02:18.330Z,4.57
2023-09-28T16:04:47.036Z,5.00
2023-09-28T16:07:15.557Z,4.93
2023-09-28T16:09:45.344Z,5.13
2023-09-28T16:12:13.680Z,4.93
2023-09-28T16:14:42.001Z,4.93
2023-09-28T16:17:10.405Z,4.38
2023-09-28T16:19:38.776Z,4.45
2023-09-28T16:22:08.256Z,4.97
2023-09-28T16:24:36.495Z,4.90
2023-09-28T16:27:06.163Z,4.70
2023-09-28T16:29:34.562Z,5.30
2023-09-28T16:32:03.490Z,4.90
2023-09-28T16:34:32.527Z,5.10
2023-09-28T16:37:00.952Z,4.80
2023-09-28T16:39:29.330Z,5.30
2023-09-28T16:41:57.773Z,4.93
2023-09-28T16:44:27.526Z,5.15
2023-09-28T16:46:55.786Z,4.70
2023-09-28T16:49:24.049Z,4.70
2023-09-28T16:51:52.307Z,4.55
2023-09-28T16:54:20.785Z,4.78
2023-09-28T16:56:49.131Z,4.55
2023-09-28T16:59:17.435Z,4.45
2023-09-28T17:01:47.284Z,5.07
2023-09-28T17:04:15.715Z,4.97
2023-09-28T17:06:44.033Z,4.32
2023-09-28T17:09:12.409Z,4.55
2023-09-28T17:11:41.202Z,4.88
2023-09-28T17:14:09.844Z,4.63
2023-09-28T17:16:38.234Z,4.57
2023-09-28T17:19:08.194Z,4.50
2023-09-28T17:21:36.848Z,4.47
2023-09-28T17:24:05.497Z,4.20
2023-09-28T17:26:33.875Z,5.00
2023-09-28T17:29:02.203Z,4.70
2023-09-28T17:31:30.480Z,4.13
2023-09-28T17:33:58.756Z,4.95
2023-09-28T17:36:28.398Z,4.57
2023-09-28T17:38:57.437Z,4.63
2023-09-28T17:41:25.722Z,4.43
2023-09-28T17:43:54.011Z,5.03
2023-09-28T17:46:22.391Z,4.90
2023-09-28T17:48:50.629Z,4.88
2023-09-28T17:51:18.963Z,4.82
2023-09-28T17:53:48.545Z,4.43
2023-09-28T17:56:16.855Z,4.88
2023-09-28T17:58:45.131Z,5.43
2023-09-28T18:01:13.325Z,5.15
2023-09-28T18:03:41.654Z,4.88
2023-09-28T18:06:10.143Z,4.80
2023-09-28T18:08:38.423Z,4.93
2023-09-28T18:11:08.382Z,5.07
2023-09-28T18:13:37.515Z,5.30
2023-09-28T18:16:06.544Z,6.22
2023-09-28T18:18:34.795Z,4.93
2023-09-28T18:21:03.031Z,5.32
2023-09-28T18:23:31.399Z,5.95
2023-09-28T18:25:59.753Z,6.38
2023-09-28T18:28:31.193Z,6.85
2023-09-28T18:30:59.532Z,7.43
2023-09-28T18:33:27.835Z,8.30
2023-09-28T18:35:57.342Z,7.53
2023-09-28T18:38:25.833Z,8.70
2023-09-28T18:40:54.299Z,7.35
2023-09-28T18:43:22.464Z,7.60
2023-09-28T18:45:55.956Z,9.32
2023-09-28T18:48:24.823Z,7.70
2023-09-28T18:50:53.962Z,7.78
2023-09-28T18:53:24.458Z,7.60
2023-09-28T18:55:55.068Z,7.50
2023-09-28T18:58:23.301Z,7.18
2023-09-28T19:00:52.763Z,7.38
2023-09-28T19:03:22.888Z,7.53
2023-09-28T19:05:51.246Z,6.73
2023-09-28T19:08:19.615Z,6.93
2023-09-28T19:10:55.945Z,6.65
2023-09-28T19:13:24.265Z,6.50
2023-09-28T19:15:52.551Z,6.38
2023-09-28T19:18:24.355Z,6.70
2023-09-28T19:20:52.648Z,6.15
2023-09-28T19:23:21.151Z,7.00
2023-09-28T19:25:49.806Z,6.07
2023-09-28T19:28:20.285Z,6.47
2023-09-28T19:30:50.230Z,7.28
2023-09-28T19:33:18.787Z,6.97
2023-09-28T19:35:48.541Z,6.43
2023-09-28T19:38:17.514Z,6.72
2023-09-28T19:40:45.987Z,6.07
2023-09-28T19:43:14.515Z,6.85
2023-09-28T19:45:43.171Z,6.97
2023-09-28T19:48:11.779Z,6.85
2023-09-28T19:50:41.773Z,6.65
2023-09-28T19:53:12.511Z,7.20
2023-09-28T19:55:42.095Z,6.65
2023-09-28T19:58:10.492Z,5.78
2023-09-28T20:00:40.510Z,6.35
2023-09-28T20:03:09.132Z,6.13
2023-09-28T20:05:37.759Z,6.28
2023-09-28T20:08:06.500Z,6.10
2023-09-28T20:10:36.276Z,5.90
2023-09-28T20:13:05.488Z,6.10
2023-09-28T20:15:33.851Z,6.45
2023-09-28T20:18:02.273Z,5.57
2023-09-28T20:20:30.598Z,6.45
2023-09-28T20:22:58.919Z,6.20
2023-09-28T20:25:27.189Z,5.57
2023-09-28T20:27:56.907Z,5.78
2023-09-28T20:30:25.268Z,6.03
2023-09-28T20:32:54.108Z,5.70
2023-09-28T20:35:22.490Z,5.97
2023-09-28T20:37:50.749Z,6.07
2023-09-28T20:40:19.088Z,5.18
2023-09-28T20:42:47.338Z,5.47
2023-09-28T20:45:17.231Z,5.20
2023-09-28T20:47:45.688Z,6.03
2023-09-28T20:50:16.030Z,5.38
2023-09-28T20:52:44.535Z,5.35
2023-09-28T20:55:13.002Z,5.82
2023-09-28T20:57:42.192Z,5.57
2023-09-28T21:00:12.616Z,5.70
2023-09-28T21:02:42.719Z,6.20
2023-09-28T21:05:11.731Z,5.70
2023-09-28T21:07:45.102Z,5.50
2023-09-28T21:10:14.400Z,5.35
2023-09-28T21:12:42.647Z,6.25
2023-09-28T21:15:11.687Z,5.85
2023-09-28T21:17:41.713Z,5.35
2023-09-28T21:20:12.370Z,6.00
2023-09-28T21:22:40.639Z,5.30
2023-09-28T21:25:09.865Z,5.88
2023-09-28T21:27:38.627Z,6.15
2023-09-28T21:30:09.857Z,5.72
2023-09-28T21:32:38.678Z,5.60
2023-09-28T21:35:10.818Z,5.43
2023-09-28T21:37:39.298Z,5.53
2023-09-28T21:40:09.367Z,5.60
2023-09-28T21:42:37.650Z,6.17
2023-09-28T21:45:07.030Z,6.03
2023-09-28T21:47:35.726Z,5.82
2023-09-28T21:50:04.635Z,6.10
2023-09-28T21:52:34.291Z,5.82
2023-09-28T21:55:02.577Z,5.55
2023-09-28T21:57:30.865Z,5.55
2023-09-28T21:59:59.042Z,5.80
2023-09-28T22:02:28.238Z,5.43
2023-09-28T22:04:56.625Z,5.85
2023-09-28T22:07:24.922Z,5.45
2023-09-28T22:09:54.935Z,5.85
2023-09-28T22:12:23.195Z,6.37
2023-09-28T22:14:51.477Z,5.57
2023-09-28T22:17:19.746Z,5.40
2023-09-28T22:19:48.017Z,6.00
2023-09-28T22:22:16.283Z,6.13
2023-09-28T22:24:44.490Z,5.68
2023-09-28T22:27:14.095Z,5.60
2023-09-28T22:29:42.428Z,5.80
2023-09-28T22:32:11.375Z,5.90
2023-09-28T22:34:39.598Z,5.82
2023-09-28T22:37:07.936Z,5.78
2023-09-28T22:39:36.214Z,5.97
2023-09-28T22:42:04.524Z,5.85
2023-09-28T22:44:34.214Z,5.97
2023-09-28T22:47:04.326Z,5.82
2023-09-28T22:49:32.668Z,5.63
2023-09-28T22:52:00.949Z,6.30
2023-09-28T22:54:29.164Z,5.75
2023-09-28T22:56:57.494Z,6.30
2023-09-28T22:59:25.883Z,6.50
2023-09-28T23:01:57.349Z,5.88
2023-09-28T23:04:27.928Z,6.20
2023-09-28T23:06:56.913Z,5.78
2023-09-28T23:09:26.496Z,5.47
2023-09-28T23:11:54.877Z,5.55
2023-09-28T23:14:23.461Z,5.90
2023-09-28T23:17:01.339Z,5.85
2023-09-28T23:19:34.892Z,6.15
2023-09-28T23:22:05.125Z,6.65
2023-09-28T23:24:33.589Z,6.30
2023-09-28T23:27:02.127Z,5.82
2023-09-28T23:29:30.835Z,6.38
2023-09-28T23:32:02.377Z,5.65
2023-09-28T23:34:32.830Z,5.57
2023-09-28T23:37:02.856Z,5.43
2023-09-28T23:39:31.220Z,5.97
2023-09-28T23:42:02.134Z,5.72
2023-09-28T23:44:30.711Z,6.15
2023-09-28T23:46:59.094Z,6.20
2023-09-28T23:49:29.920Z,6.13
2023-09-28T23:51:59.610Z,5.78
2023-09-28T23:54:28.528Z,5.85
2023-09-28T23:56:56.843Z,6.05
2023-09-28T23:59:25.367Z,6.60
